sensor_id;sensor_type;location;lat;lon;timestamp;P1;durP1;ratioP1;P2;durP2;ratioP2
70385;SDS011;63206;55.650;37.500;2022-10-31T00:00:59;1.80;;;0.65;;
70385;SDS011;63206;55.650;37.500;2022-10-31T00:03:25;1.52;;;0.68;;
70385;SDS011;63206;55.650;37.500;2022-10-31T00:05:54;4.00;;;1.05;;
70385;SDS011;63206;55.650;37.500;2022-10-31T00:08:20;2.70;;;0.90;;
70385;SDS011;63206;55.650;37.500;2022-10-31T00:10:55;0.93;;;0.70;;
70385;SDS011;63206;55.650;37.500;2022-10-31T00:13:29;0.85;;;0.55;;
70385;SDS011;63206;55.650;37.500;2022-10-31T00:15:55;0.50;;;0.50;;
70385;SDS011;63206;55.650;37.500;2022-10-31T00:18:24;0.93;;;0.57;;
70385;SDS011;63206;55.650;37.500;2022-10-31T00:20:59;1.52;;;0.65;;
70385;SDS011;63206;55.650;37.500;2022-10-31T00:23:31;1.48;;;0.65;;
70385;SDS011;63206;55.650;37.500;2022-10-31T00:26:02;4.63;;;0.85;;
70385;SDS011;63206;55.650;37.500;2022-10-31T00:28:31;0.85;;;0.45;;
70385;SDS011;63206;55.650;37.500;2022-10-31T00:31:04;3.45;;;0.75;;
70385;SDS011;63206;55.650;37.500;2022-10-31T00:33:35;1.05;;;0.60;;
70385;SDS011;63206;55.650;37.500;2022-10-31T00:36:11;0.73;;;0.60;;
70385;SDS011;63206;55.650;37.500;2022-10-31T00:38:41;1.10;;;0.52;;
70385;SDS011;63206;55.650;37.500;2022-10-31T00:41:13;2.88;;;0.73;;
70385;SDS011;63206;55.650;37.500;2022-10-31T00:43:43;1.08;;;0.60;;
70385;SDS011;63206;55.650;37.500;2022-10-31T00:46:11;1.73;;;0.47;;
70385;SDS011;63206;55.650;37.500;2022-10-31T00:48:38;3.78;;;0.82;;
70385;SDS011;63206;55.650;37.500;2022-10-31T00:51:09;2.05;;;0.68;;
70385;SDS011;63206;55.650;37.500;2022-10-31T00:53:36;1.55;;;0.68;;
70385;SDS011;63206;55.650;37.500;2022-10-31T00:56:05;1.42;;;0.70;;
70385;SDS011;63206;55.650;37.500;2022-10-31T00:58:34;2.63;;;1.00;;
70385;SDS011;63206;55.650;37.500;2022-10-31T01:01:08;2.08;;;0.70;;
70385;SDS011;63206;55.650;37.500;2022-10-31T01:03:46;2.53;;;0.90;;
70385;SDS011;63206;55.650;37.500;2022-10-31T01:06:14;1.23;;;0.68;;
70385;SDS011;63206;55.650;37.500;2022-10-31T01:08:44;1.65;;;0.45;;
70385;SDS011;63206;55.650;37.500;2022-10-31T01:11:18;2.30;;;0.80;;
70385;SDS011;63206;55.650;37.500;2022-10-31T01:13:51;0.73;;;0.38;;
70385;SDS011;63206;55.650;37.500;2022-10-31T01:16:24;2.53;;;0.82;;
70385;SDS011;63206;55.650;37.500;2022-10-31T01:18:55;0.70;;;0.20;;
70385;SDS011;63206;55.650;37.500;2022-10-31T01:21:27;1.35;;;0.68;;
70385;SDS011;63206;55.650;37.500;2022-10-31T01:24:03;2.65;;;0.70;;
70385;SDS011;63206;55.650;37.500;2022-10-31T01:26:30;2.08;;;0.73;;
70385;SDS011;63206;55.650;37.500;2022-10-31T01:28:57;0.68;;;0.40;;
70385;SDS011;63206;55.650;37.500;2022-10-31T01:31:28;2.38;;;0.82;;
70385;SDS011;63206;55.650;37.500;2022-10-31T01:33:58;2.05;;;0.70;;
70385;SDS011;63206;55.650;37.500;2022-10-31T01:36:43;1.52;;;0.73;;
70385;SDS011;63206;55.650;37.500;2022-10-31T01:39:16;2.50;;;0.70;;
70385;SDS011;63206;55.650;37.500;2022-10-31T01:41:51;2.22;;;0.80;;
70385;SDS011;63206;55.650;37.500;2022-10-31T01:47:08;2.55;;;0.73;;
70385;SDS011;63206;55.650;37.500;2022-10-31T01:49:43;1.52;;;0.73;;
70385;SDS011;63206;55.650;37.500;2022-10-31T01:52:30;2.75;;;0.88;;
70385;SDS011;63206;55.650;37.500;2022-10-31T01:55:15;0.43;;;0.43;;
70385;SDS011;63206;55.650;37.500;2022-10-31T01:57:50;1.65;;;0.65;;
70385;SDS011;63206;55.650;37.500;2022-10-31T02:00:20;1.42;;;1.00;;
70385;SDS011;63206;55.650;37.500;2022-10-31T02:02:50;2.30;;;0.70;;
70385;SDS011;63206;55.650;37.500;2022-10-31T02:05:17;2.50;;;0.93;;
70385;SDS011;63206;55.650;37.500;2022-10-31T02:07:55;1.67;;;0.65;;
70385;SDS011;63206;55.650;37.500;2022-10-31T02:10:35;2.55;;;0.98;;
70385;SDS011;63206;55.650;37.500;2022-10-31T02:13:07;3.08;;;1.08;;
70385;SDS011;63206;55.650;37.500;2022-10-31T02:15:42;1.08;;;0.60;;
70385;SDS011;63206;55.650;37.500;2022-10-31T02:18:14;1.58;;;0.95;;
70385;SDS011;63206;55.650;37.500;2022-10-31T02:20:52;5.70;;;1.40;;
70385;SDS011;63206;55.650;37.500;2022-10-31T02:33:58;3.17;;;1.17;;
70385;SDS011;63206;55.650;37.500;2022-10-31T02:39:06;2.67;;;1.20;;
70385;SDS011;63206;55.650;37.500;2022-10-31T02:47:03;2.45;;;1.10;;
70385;SDS011;63206;55.650;37.500;2022-10-31T02:49:35;4.75;;;1.52;;
70385;SDS011;63206;55.650;37.500;2022-10-31T02:52:20;2.67;;;1.20;;
70385;SDS011;63206;55.650;37.500;2022-10-31T02:54:50;2.78;;;1.08;;
70385;SDS011;63206;55.650;37.500;2022-10-31T02:57:26;3.63;;;1.10;;
70385;SDS011;63206;55.650;37.500;2022-10-31T02:59:56;1.63;;;0.77;;
70385;SDS011;63206;55.650;37.500;2022-10-31T03:05:04;4.75;;;1.05;;
70385;SDS011;63206;55.650;37.500;2022-10-31T03:07:42;1.88;;;1.10;;
70385;SDS011;63206;55.650;37.500;2022-10-31T03:15:26;2.80;;;1.13;;
70385;SDS011;63206;55.650;37.500;2022-10-31T03:20:27;4.28;;;1.00;;
70385;SDS011;63206;55.650;37.500;2022-10-31T03:22:55;3.65;;;1.15;;
70385;SDS011;63206;55.650;37.500;2022-10-31T03:25:28;1.55;;;1.00;;
70385;SDS011;63206;55.650;37.500;2022-10-31T03:28:04;4.38;;;1.23;;
70385;SDS011;63206;55.650;37.500;2022-10-31T03:30:35;2.67;;;1.20;;
70385;SDS011;63206;55.650;37.500;2022-10-31T03:33:04;2.42;;;1.15;;
70385;SDS011;63206;55.650;37.500;2022-10-31T03:35:34;2.40;;;1.20;;
70385;SDS011;63206;55.650;37.500;2022-10-31T03:38:04;4.13;;;1.17;;
70385;SDS011;63206;55.650;37.500;2022-10-31T03:40:35;2.72;;;1.10;;
70385;SDS011;63206;55.650;37.500;2022-10-31T03:43:10;1.55;;;1.13;;
70385;SDS011;63206;55.650;37.500;2022-10-31T03:45:44;1.55;;;0.95;;
70385;SDS011;63206;55.650;37.500;2022-10-31T03:48:16;3.80;;;0.90;;
70385;SDS011;63206;55.650;37.500;2022-10-31T03:51:05;3.88;;;1.08;;
70385;SDS011;63206;55.650;37.500;2022-10-31T03:53:36;2.28;;;1.17;;
70385;SDS011;63206;55.650;37.500;2022-10-31T03:56:12;2.70;;;0.85;;
70385;SDS011;63206;55.650;37.500;2022-10-31T03:58:52;1.90;;;0.95;;
70385;SDS011;63206;55.650;37.500;2022-10-31T04:01:26;3.83;;;1.10;;
70385;SDS011;63206;55.650;37.500;2022-10-31T04:04:00;1.45;;;0.82;;
70385;SDS011;63206;55.650;37.500;2022-10-31T04:06:26;2.22;;;1.15;;
70385;SDS011;63206;55.650;37.500;2022-10-31T04:08:57;1.85;;;0.95;;
70385;SDS011;63206;55.650;37.500;2022-10-31T04:11:25;2.83;;;1.30;;
70385;SDS011;63206;55.650;37.500;2022-10-31T04:14:22;1.92;;;0.80;;
70385;SDS011;63206;55.650;37.500;2022-10-31T04:16:53;2.47;;;1.10;;
70385;SDS011;63206;55.650;37.500;2022-10-31T04:19:24;3.35;;;1.10;;
70385;SDS011;63206;55.650;37.500;2022-10-31T04:21:53;5.20;;;0.80;;
70385;SDS011;63206;55.650;37.500;2022-10-31T04:24:22;5.78;;;1.00;;
70385;SDS011;63206;55.650;37.500;2022-10-31T04:26:48;3.03;;;1.10;;
70385;SDS011;63206;55.650;37.500;2022-10-31T04:29:16;5.57;;;0.90;;
70385;SDS011;63206;55.650;37.500;2022-10-31T04:31:45;2.97;;;1.00;;
70385;SDS011;63206;55.650;37.500;2022-10-31T04:34:11;2.58;;;1.00;;
70385;SDS011;63206;55.650;37.500;2022-10-31T04:36:46;1.88;;;0.85;;
70385;SDS011;63206;55.650;37.500;2022-10-31T04:39:16;2.95;;;1.08;;
70385;SDS011;63206;55.650;37.500;2022-10-31T04:42:10;2.67;;;0.77;;
70385;SDS011;63206;55.650;37.500;2022-10-31T04:44:39;5.18;;;1.25;;
70385;SDS011;63206;55.650;37.500;2022-10-31T04:47:05;0.95;;;0.50;;
70385;SDS011;63206;55.650;37.500;2022-10-31T04:49:31;2.22;;;1.13;;
70385;SDS011;63206;55.650;37.500;2022-10-31T04:52:02;2.45;;;1.13;;
70385;SDS011;63206;55.650;37.500;2022-10-31T04:54:29;3.42;;;1.10;;
70385;SDS011;63206;55.650;37.500;2022-10-31T04:57:18;3.03;;;1.02;;
70385;SDS011;63206;55.650;37.500;2022-10-31T04:59:44;3.20;;;1.20;;
70385;SDS011;63206;55.650;37.500;2022-10-31T05:02:16;2.78;;;0.95;;
70385;SDS011;63206;55.650;37.500;2022-10-31T05:04:50;1.58;;;0.90;;
70385;SDS011;63206;55.650;37.500;2022-10-31T05:07:17;3.03;;;1.08;;
70385;SDS011;63206;55.650;37.500;2022-10-31T05:09:48;1.50;;;0.95;;
70385;SDS011;63206;55.650;37.500;2022-10-31T05:12:23;2.47;;;1.20;;
70385;SDS011;63206;55.650;37.500;2022-10-31T05:15:28;1.58;;;0.95;;
70385;SDS011;63206;55.650;37.500;2022-10-31T05:18:16;2.25;;;1.27;;
70385;SDS011;63206;55.650;37.500;2022-10-31T05:20:50;2.08;;;0.82;;
70385;SDS011;63206;55.650;37.500;2022-10-31T05:23:33;3.25;;;1.13;;
70385;SDS011;63206;55.650;37.500;2022-10-31T05:26:02;1.48;;;0.80;;
70385;SDS011;63206;55.650;37.500;2022-10-31T05:28:28;4.63;;;1.38;;
70385;SDS011;63206;55.650;37.500;2022-10-31T05:31:00;1.70;;;0.90;;
70385;SDS011;63206;55.650;37.500;2022-10-31T05:33:32;1.65;;;1.17;;
70385;SDS011;63206;55.650;37.500;2022-10-31T05:36:20;2.17;;;1.30;;
70385;SDS011;63206;55.650;37.500;2022-10-31T05:39:02;1.77;;;0.80;;
70385;SDS011;63206;55.650;37.500;2022-10-31T05:41:41;2.92;;;1.30;;
70385;SDS011;63206;55.650;37.500;2022-10-31T05:44:30;3.97;;;1.30;;
70385;SDS011;63206;55.650;37.500;2022-10-31T05:47:19;4.57;;;1.40;;
70385;SDS011;63206;55.650;37.500;2022-10-31T05:50:04;1.50;;;0.98;;
70385;SDS011;63206;55.650;37.500;2022-10-31T05:52:53;3.25;;;1.10;;
70385;SDS011;63206;55.650;37.500;2022-10-31T05:55:33;2.72;;;1.10;;
70385;SDS011;63206;55.650;37.500;2022-10-31T05:58:15;2.10;;;1.20;;
70385;SDS011;63206;55.650;37.500;2022-10-31T06:00:56;1.83;;;1.35;;
70385;SDS011;63206;55.650;37.500;2022-10-31T06:03:27;2.88;;;1.23;;
70385;SDS011;63206;55.650;37.500;2022-10-31T06:06:02;2.85;;;1.10;;
70385;SDS011;63206;55.650;37.500;2022-10-31T06:08:42;2.85;;;1.40;;
70385;SDS011;63206;55.650;37.500;2022-10-31T06:11:19;6.22;;;2.00;;
70385;SDS011;63206;55.650;37.500;2022-10-31T06:14:23;3.58;;;1.55;;
70385;SDS011;63206;55.650;37.500;2022-10-31T06:16:54;4.70;;;1.35;;
70385;SDS011;63206;55.650;37.500;2022-10-31T06:19:41;4.45;;;1.45;;
70385;SDS011;63206;55.650;37.500;2022-10-31T06:22:17;4.60;;;1.40;;
70385;SDS011;63206;55.650;37.500;2022-10-31T06:24:46;3.53;;;1.30;;
70385;SDS011;63206;55.650;37.500;2022-10-31T06:27:27;5.50;;;1.70;;
70385;SDS011;63206;55.650;37.500;2022-10-31T06:30:01;3.70;;;1.70;;
70385;SDS011;63206;55.650;37.500;2022-10-31T06:32:35;3.92;;;1.48;;
70385;SDS011;63206;55.650;37.500;2022-10-31T06:35:03;3.72;;;1.73;;
70385;SDS011;63206;55.650;37.500;2022-10-31T06:37:31;3.00;;;1.58;;
70385;SDS011;63206;55.650;37.500;2022-10-31T06:40:07;5.53;;;1.77;;
70385;SDS011;63206;55.650;37.500;2022-10-31T06:42:58;3.22;;;1.70;;
70385;SDS011;63206;55.650;37.500;2022-10-31T06:45:27;5.18;;;2.10;;
70385;SDS011;63206;55.650;37.500;2022-10-31T06:48:22;3.97;;;1.90;;
70385;SDS011;63206;55.650;37.500;2022-10-31T06:51:17;5.32;;;2.00;;
70385;SDS011;63206;55.650;37.500;2022-10-31T06:53:47;6.28;;;2.50;;
70385;SDS011;63206;55.650;37.500;2022-10-31T06:56:18;5.80;;;2.45;;
70385;SDS011;63206;55.650;37.500;2022-10-31T06:58:54;4.93;;;1.88;;
70385;SDS011;63206;55.650;37.500;2022-10-31T07:01:42;4.60;;;1.85;;
70385;SDS011;63206;55.650;37.500;2022-10-31T07:04:13;8.18;;;1.88;;
70385;SDS011;63206;55.650;37.500;2022-10-31T07:06:44;4.57;;;1.73;;
70385;SDS011;63206;55.650;37.500;2022-10-31T07:09:16;4.88;;;1.70;;
70385;SDS011;63206;55.650;37.500;2022-10-31T07:11:42;4.90;;;1.90;;
70385;SDS011;63206;55.650;37.500;2022-10-31T07:14:08;4.22;;;1.90;;
70385;SDS011;63206;55.650;37.500;2022-10-31T07:16:37;4.05;;;1.67;;
70385;SDS011;63206;55.650;37.500;2022-10-31T07:19:07;3.95;;;1.63;;
70385;SDS011;63206;55.650;37.500;2022-10-31T07:21:40;4.70;;;1.70;;
70385;SDS011;63206;55.650;37.500;2022-10-31T07:24:15;6.07;;;1.90;;
70385;SDS011;63206;55.650;37.500;2022-10-31T07:27:05;3.35;;;1.77;;
70385;SDS011;63206;55.650;37.500;2022-10-31T07:32:08;4.78;;;1.85;;
70385;SDS011;63206;55.650;37.500;2022-10-31T07:34:44;5.07;;;1.98;;
70385;SDS011;63206;55.650;37.500;2022-10-31T07:37:23;5.82;;;2.00;;
70385;SDS011;63206;55.650;37.500;2022-10-31T07:39:59;2.50;;;1.40;;
70385;SDS011;63206;55.650;37.500;2022-10-31T07:42:34;2.75;;;1.70;;
70385;SDS011;63206;55.650;37.500;2022-10-31T07:45:04;5.13;;;1.95;;
70385;SDS011;63206;55.650;37.500;2022-10-31T07:47:59;2.97;;;1.73;;
70385;SDS011;63206;55.650;37.500;2022-10-31T07:50:47;3.83;;;1.70;;
70385;SDS011;63206;55.650;37.500;2022-10-31T07:53:36;3.25;;;1.60;;
70385;SDS011;63206;55.650;37.500;2022-10-31T07:56:26;2.78;;;1.58;;
70385;SDS011;63206;55.650;37.500;2022-10-31T07:59:00;2.97;;;1.50;;
70385;SDS011;63206;55.650;37.500;2022-10-31T08:01:31;3.80;;;1.45;;
70385;SDS011;63206;55.650;37.500;2022-10-31T08:04:26;3.30;;;1.58;;
70385;SDS011;63206;55.650;37.500;2022-10-31T08:07:25;4.55;;;1.60;;
70385;SDS011;63206;55.650;37.500;2022-10-31T08:10:06;5.22;;;1.50;;
70385;SDS011;63206;55.650;37.500;2022-10-31T08:12:39;4.07;;;1.50;;
70385;SDS011;63206;55.650;37.500;2022-10-31T08:17:42;1.90;;;1.00;;
70385;SDS011;63206;55.650;37.500;2022-10-31T08:20:12;3.65;;;1.50;;
70385;SDS011;63206;55.650;37.500;2022-10-31T08:23:02;4.35;;;1.48;;
70385;SDS011;63206;55.650;37.500;2022-10-31T08:25:34;3.17;;;1.60;;
70385;SDS011;63206;55.650;37.500;2022-10-31T08:28:06;2.67;;;1.30;;
70385;SDS011;63206;55.650;37.500;2022-10-31T08:30:33;4.00;;;1.50;;
70385;SDS011;63206;55.650;37.500;2022-10-31T08:33:25;2.25;;;1.30;;
70385;SDS011;63206;55.650;37.500;2022-10-31T08:36:14;4.63;;;1.80;;
70385;SDS011;63206;55.650;37.500;2022-10-31T08:39:00;3.00;;;1.45;;
70385;SDS011;63206;55.650;37.500;2022-10-31T08:41:35;4.35;;;1.67;;
70385;SDS011;63206;55.650;37.500;2022-10-31T08:44:08;3.90;;;1.50;;
70385;SDS011;63206;55.650;37.500;2022-10-31T08:46:43;2.67;;;1.23;;
70385;SDS011;63206;55.650;37.500;2022-10-31T08:49:19;3.72;;;1.38;;
70385;SDS011;63206;55.650;37.500;2022-10-31T08:51:48;4.45;;;1.70;;
70385;SDS011;63206;55.650;37.500;2022-10-31T08:54:25;4.63;;;1.65;;
70385;SDS011;63206;55.650;37.500;2022-10-31T08:57:02;3.95;;;1.60;;
70385;SDS011;63206;55.650;37.500;2022-10-31T08:59:43;5.25;;;1.75;;
70385;SDS011;63206;55.650;37.500;2022-10-31T09:02:21;5.10;;;1.60;;
70385;SDS011;63206;55.650;37.500;2022-10-31T09:04:56;2.97;;;1.60;;
70385;SDS011;63206;55.650;37.500;2022-10-31T09:07:27;6.03;;;1.80;;
70385;SDS011;63206;55.650;37.500;2022-10-31T09:10:01;3.75;;;1.50;;
70385;SDS011;63206;55.650;37.500;2022-10-31T09:12:39;3.50;;;1.70;;
70385;SDS011;63206;55.650;37.500;2022-10-31T09:15:24;4.22;;;1.58;;
70385;SDS011;63206;55.650;37.500;2022-10-31T09:18:06;4.20;;;1.60;;
70385;SDS011;63206;55.650;37.500;2022-10-31T09:21:03;5.15;;;1.90;;
70385;SDS011;63206;55.650;37.500;2022-10-31T09:23:36;4.65;;;1.98;;
70385;SDS011;63206;55.650;37.500;2022-10-31T09:26:09;5.57;;;1.85;;
70385;SDS011;63206;55.650;37.500;2022-10-31T09:28:56;4.30;;;1.70;;
70385;SDS011;63206;55.650;37.500;2022-10-31T09:31:27;6.00;;;1.90;;
70385;SDS011;63206;55.650;37.500;2022-10-31T09:34:11;4.97;;;1.92;;
70385;SDS011;63206;55.650;37.500;2022-10-31T09:36:39;4.70;;;1.75;;
70385;SDS011;63206;55.650;37.500;2022-10-31T09:39:29;4.97;;;1.90;;
70385;SDS011;63206;55.650;37.500;2022-10-31T09:45:12;4.00;;;1.75;;
70385;SDS011;63206;55.650;37.500;2022-10-31T09:50:48;3.05;;;1.60;;
70385;SDS011;63206;55.650;37.500;2022-10-31T09:53:39;1.70;;;1.20;;
70385;SDS011;63206;55.650;37.500;2022-10-31T09:56:15;3.40;;;1.40;;
70385;SDS011;63206;55.650;37.500;2022-10-31T09:58:54;1.48;;;0.90;;
70385;SDS011;63206;55.650;37.500;2022-10-31T10:04:03;2.75;;;1.30;;
70385;SDS011;63206;55.650;37.500;2022-10-31T10:07:02;3.58;;;1.50;;
70385;SDS011;63206;55.650;37.500;2022-10-31T10:10:10;2.90;;;1.42;;
70385;SDS011;63206;55.650;37.500;2022-10-31T10:13:19;2.38;;;1.38;;
70385;SDS011;63206;55.650;37.500;2022-10-31T10:19:04;2.00;;;1.10;;
70385;SDS011;63206;55.650;37.500;2022-10-31T10:21:58;2.05;;;1.20;;
70385;SDS011;63206;55.650;37.500;2022-10-31T10:24:48;2.05;;;1.30;;
70385;SDS011;63206;55.650;37.500;2022-10-31T10:30:15;1.90;;;1.00;;
70385;SDS011;63206;55.650;37.500;2022-10-31T10:32:46;2.95;;;1.50;;
70385;SDS011;63206;55.650;37.500;2022-10-31T10:37:49;3.15;;;1.67;;
70385;SDS011;63206;55.650;37.500;2022-10-31T10:40:17;2.22;;;1.27;;
70385;SDS011;63206;55.650;37.500;2022-10-31T10:42:58;2.40;;;1.40;;
70385;SDS011;63206;55.650;37.500;2022-10-31T10:46:34;2.38;;;1.30;;
70385;SDS011;63206;55.650;37.500;2022-10-31T10:49:16;3.28;;;1.40;;
70385;SDS011;63206;55.650;37.500;2022-10-31T10:51:44;4.13;;;1.40;;
70385;SDS011;63206;55.650;37.500;2022-10-31T10:59:47;3.45;;;1.38;;
70385;SDS011;63206;55.650;37.500;2022-10-31T11:02:23;3.35;;;1.55;;
70385;SDS011;63206;55.650;37.500;2022-10-31T11:04:56;3.13;;;1.60;;
70385;SDS011;63206;55.650;37.500;2022-10-31T11:07:25;2.20;;;1.40;;
70385;SDS011;63206;55.650;37.500;2022-10-31T11:10:04;1.83;;;1.40;;
70385;SDS011;63206;55.650;37.500;2022-10-31T11:12:33;3.28;;;1.10;;
70385;SDS011;63206;55.650;37.500;2022-10-31T11:15:06;3.92;;;1.70;;
70385;SDS011;63206;55.650;37.500;2022-10-31T11:17:39;2.15;;;1.65;;
70385;SDS011;63206;55.650;37.500;2022-10-31T11:22:37;2.67;;;1.23;;
70385;SDS011;63206;55.650;37.500;2022-10-31T11:25:39;3.85;;;0.90;;
70385;SDS011;63206;55.650;37.500;2022-10-31T11:30:35;3.50;;;1.45;;
70385;SDS011;63206;55.650;37.500;2022-10-31T11:33:13;1.70;;;1.05;;
70385;SDS011;63206;55.650;37.500;2022-10-31T11:35:41;1.90;;;1.23;;
70385;SDS011;63206;55.650;37.500;2022-10-31T11:38:14;2.22;;;1.25;;
70385;SDS011;63206;55.650;37.500;2022-10-31T11:40:50;2.80;;;1.27;;
70385;SDS011;63206;55.650;37.500;2022-10-31T11:43:19;1.90;;;1.10;;
70385;SDS011;63206;55.650;37.500;2022-10-31T11:45:45;1.23;;;0.95;;
70385;SDS011;63206;55.650;37.500;2022-10-31T11:48:22;1.90;;;1.10;;
70385;SDS011;63206;55.650;37.500;2022-10-31T11:50:52;3.55;;;1.27;;
70385;SDS011;63206;55.650;37.500;2022-10-31T11:53:22;2.35;;;1.30;;
70385;SDS011;63206;55.650;37.500;2022-10-31T11:58:57;2.33;;;1.10;;
70385;SDS011;63206;55.650;37.500;2022-10-31T12:01:25;3.55;;;1.30;;
70385;SDS011;63206;55.650;37.500;2022-10-31T12:03:54;3.03;;;1.10;;
70385;SDS011;63206;55.650;37.500;2022-10-31T12:06:23;5.03;;;1.25;;
70385;SDS011;63206;55.650;37.500;2022-10-31T12:08:51;1.10;;;0.95;;
70385;SDS011;63206;55.650;37.500;2022-10-31T12:13:56;3.58;;;1.40;;
70385;SDS011;63206;55.650;37.500;2022-10-31T12:16:28;1.80;;;1.38;;
70385;SDS011;63206;55.650;37.500;2022-10-31T12:18:59;1.38;;;0.93;;
70385;SDS011;63206;55.650;37.500;2022-10-31T12:24:04;1.60;;;1.10;;
70385;SDS011;63206;55.650;37.500;2022-10-31T12:31:35;3.72;;;1.35;;
70385;SDS011;63206;55.650;37.500;2022-10-31T12:34:19;3.42;;;1.30;;
70385;SDS011;63206;55.650;37.500;2022-10-31T12:36:57;2.03;;;1.20;;
70385;SDS011;63206;55.650;37.500;2022-10-31T12:57:44;4.97;;;1.52;;
70385;SDS011;63206;55.650;37.500;2022-10-31T13:00:16;3.55;;;1.77;;
70385;SDS011;63206;55.650;37.500;2022-10-31T13:13:27;3.38;;;1.60;;
70385;SDS011;63206;55.650;37.500;2022-10-31T13:16:04;4.15;;;1.35;;
70385;SDS011;63206;55.650;37.500;2022-10-31T13:18:35;2.72;;;1.45;;
70385;SDS011;63206;55.650;37.500;2022-10-31T13:21:10;3.88;;;1.70;;
70385;SDS011;63206;55.650;37.500;2022-10-31T13:23:41;4.35;;;1.40;;
70385;SDS011;63206;55.650;37.500;2022-10-31T13:26:11;3.85;;;1.40;;
70385;SDS011;63206;55.650;37.500;2022-10-31T13:28:45;2.88;;;1.70;;
70385;SDS011;63206;55.650;37.500;2022-10-31T13:31:14;3.42;;;1.50;;
70385;SDS011;63206;55.650;37.500;2022-10-31T13:33:44;2.78;;;1.50;;
70385;SDS011;63206;55.650;37.500;2022-10-31T13:46:21;3.10;;;1.40;;
70385;SDS011;63206;55.650;37.500;2022-10-31T13:48:47;3.10;;;1.30;;
70385;SDS011;63206;55.650;37.500;2022-10-31T13:51:13;2.92;;;1.40;;
70385;SDS011;63206;55.650;37.500;2022-10-31T14:01:32;3.58;;;1.55;;
70385;SDS011;63206;55.650;37.500;2022-10-31T14:04:03;3.70;;;1.27;;
70385;SDS011;63206;55.650;37.500;2022-10-31T14:06:37;3.88;;;1.58;;
70385;SDS011;63206;55.650;37.500;2022-10-31T14:09:04;2.92;;;1.55;;
70385;SDS011;63206;55.650;37.500;2022-10-31T14:11:30;5.43;;;1.40;;
70385;SDS011;63206;55.650;37.500;2022-10-31T14:13:57;2.15;;;1.38;;
70385;SDS011;63206;55.650;37.500;2022-10-31T14:19:02;2.90;;;1.35;;
70385;SDS011;63206;55.650;37.500;2022-10-31T14:21:37;2.60;;;1.52;;
70385;SDS011;63206;55.650;37.500;2022-10-31T14:24:29;3.85;;;1.40;;
70385;SDS011;63206;55.650;37.500;2022-10-31T14:27:03;4.50;;;1.52;;
70385;SDS011;63206;55.650;37.500;2022-10-31T14:29:30;4.20;;;1.50;;
70385;SDS011;63206;55.650;37.500;2022-10-31T14:34:40;3.50;;;1.70;;
70385;SDS011;63206;55.650;37.500;2022-10-31T14:39:46;6.03;;;1.73;;
70385;SDS011;63206;55.650;37.500;2022-10-31T14:47:27;3.60;;;1.50;;
70385;SDS011;63206;55.650;37.500;2022-10-31T14:52:35;4.90;;;2.00;;
70385;SDS011;63206;55.650;37.500;2022-10-31T14:55:03;4.85;;;1.40;;
70385;SDS011;63206;55.650;37.500;2022-10-31T14:57:36;2.63;;;1.42;;
70385;SDS011;63206;55.650;37.500;2022-10-31T15:00:15;4.15;;;1.50;;
70385;SDS011;63206;55.650;37.500;2022-10-31T15:03:05;3.17;;;1.60;;
70385;SDS011;63206;55.650;37.500;2022-10-31T15:05:47;3.42;;;1.60;;
70385;SDS011;63206;55.650;37.500;2022-10-31T15:08:27;3.30;;;1.60;;
70385;SDS011;63206;55.650;37.500;2022-10-31T15:10:57;4.13;;;1.70;;
70385;SDS011;63206;55.650;37.500;2022-10-31T15:13:28;4.47;;;1.60;;
70385;SDS011;63206;55.650;37.500;2022-10-31T15:15:55;2.85;;;1.40;;
70385;SDS011;63206;55.650;37.500;2022-10-31T15:18:23;4.30;;;1.65;;
70385;SDS011;63206;55.650;37.500;2022-10-31T15:20:58;3.47;;;1.60;;
70385;SDS011;63206;55.650;37.500;2022-10-31T15:23:28;3.67;;;1.73;;
70385;SDS011;63206;55.650;37.500;2022-10-31T15:26:01;5.35;;;1.90;;
70385;SDS011;63206;55.650;37.500;2022-10-31T15:28:28;3.72;;;1.73;;
70385;SDS011;63206;55.650;37.500;2022-10-31T15:30:55;7.03;;;1.85;;
70385;SDS011;63206;55.650;37.500;2022-10-31T15:33:28;4.18;;;1.63;;
70385;SDS011;63206;55.650;37.500;2022-10-31T15:35:55;3.90;;;1.77;;
70385;SDS011;63206;55.650;37.500;2022-10-31T15:38:22;3.63;;;1.70;;
70385;SDS011;63206;55.650;37.500;2022-10-31T15:40:51;4.15;;;1.67;;
70385;SDS011;63206;55.650;37.500;2022-10-31T15:43:18;2.70;;;1.60;;
70385;SDS011;63206;55.650;37.500;2022-10-31T15:45:48;4.22;;;1.80;;
70385;SDS011;63206;55.650;37.500;2022-10-31T15:48:19;3.60;;;1.77;;
70385;SDS011;63206;55.650;37.500;2022-10-31T15:50:51;4.72;;;1.92;;
70385;SDS011;63206;55.650;37.500;2022-10-31T15:53:19;5.03;;;1.88;;
70385;SDS011;63206;55.650;37.500;2022-10-31T15:55:47;4.63;;;1.70;;
70385;SDS011;63206;55.650;37.500;2022-10-31T15:58:14;3.70;;;1.50;;
70385;SDS011;63206;55.650;37.500;2022-10-31T16:00:44;6.55;;;1.95;;
70385;SDS011;63206;55.650;37.500;2022-10-31T16:05:49;4.80;;;1.88;;
70385;SDS011;63206;55.650;37.500;2022-10-31T16:10:59;5.32;;;2.00;;
70385;SDS011;63206;55.650;37.500;2022-10-31T16:13:30;6.15;;;1.88;;
70385;SDS011;63206;55.650;37.500;2022-10-31T16:16:12;5.43;;;2.40;;
70385;SDS011;63206;55.650;37.500;2022-10-31T16:18:39;4.57;;;1.75;;
70385;SDS011;63206;55.650;37.500;2022-10-31T16:21:08;4.18;;;1.77;;
70385;SDS011;63206;55.650;37.500;2022-10-31T16:23:35;5.45;;;2.00;;
70385;SDS011;63206;55.650;37.500;2022-10-31T16:26:05;4.55;;;1.60;;
70385;SDS011;63206;55.650;37.500;2022-10-31T16:28:32;3.58;;;1.60;;
70385;SDS011;63206;55.650;37.500;2022-10-31T16:30:58;4.28;;;1.88;;
70385;SDS011;63206;55.650;37.500;2022-10-31T16:35:59;3.97;;;1.75;;
70385;SDS011;63206;55.650;37.500;2022-10-31T16:38:27;1.92;;;1.30;;
70385;SDS011;63206;55.650;37.500;2022-10-31T16:40:56;3.05;;;1.50;;
70385;SDS011;63206;55.650;37.500;2022-10-31T16:43:24;3.47;;;1.50;;
70385;SDS011;63206;55.650;37.500;2022-10-31T16:45:53;2.55;;;1.38;;
70385;SDS011;63206;55.650;37.500;2022-10-31T16:48:20;5.80;;;1.70;;
70385;SDS011;63206;55.650;37.500;2022-10-31T16:50:48;2.65;;;1.40;;
70385;SDS011;63206;55.650;37.500;2022-10-31T16:53:14;5.38;;;1.67;;
70385;SDS011;63206;55.650;37.500;2022-10-31T16:55:42;3.45;;;1.60;;
70385;SDS011;63206;55.650;37.500;2022-10-31T16:58:13;2.80;;;1.30;;
70385;SDS011;63206;55.650;37.500;2022-10-31T17:00:39;3.10;;;1.70;;
70385;SDS011;63206;55.650;37.500;2022-10-31T17:03:07;3.22;;;1.58;;
70385;SDS011;63206;55.650;37.500;2022-10-31T17:05:33;3.55;;;1.58;;
70385;SDS011;63206;55.650;37.500;2022-10-31T17:07:59;3.60;;;1.45;;
70385;SDS011;63206;55.650;37.500;2022-10-31T17:10:25;3.25;;;1.48;;
70385;SDS011;63206;55.650;37.500;2022-10-31T17:12:52;3.97;;;1.50;;
70385;SDS011;63206;55.650;37.500;2022-10-31T17:18:41;3.17;;;1.60;;
70385;SDS011;63206;55.650;37.500;2022-10-31T17:21:09;4.35;;;1.48;;
70385;SDS011;63206;55.650;37.500;2022-10-31T17:23:39;3.90;;;1.75;;
70385;SDS011;63206;55.650;37.500;2022-10-31T17:26:05;4.15;;;1.60;;
70385;SDS011;63206;55.650;37.500;2022-10-31T17:28:33;2.88;;;1.50;;
70385;SDS011;63206;55.650;37.500;2022-10-31T17:30:59;2.70;;;1.30;;
70385;SDS011;63206;55.650;37.500;2022-10-31T17:33:29;3.28;;;1.42;;
70385;SDS011;63206;55.650;37.500;2022-10-31T17:38:23;2.63;;;1.38;;
70385;SDS011;63206;55.650;37.500;2022-10-31T17:40:49;3.10;;;1.40;;
70385;SDS011;63206;55.650;37.500;2022-10-31T17:43:15;2.78;;;1.50;;
70385;SDS011;63206;55.650;37.500;2022-10-31T17:45:41;6.10;;;1.67;;
70385;SDS011;63206;55.650;37.500;2022-10-31T17:48:10;3.35;;;1.52;;